Search for airport 
image banner adimage banner adimage banner ad
image banner ad

PA65 - Hi-Vu

Located in Coplay, United States

ICAO - PA65, IATA -

Data provided by Airmate  

General information

Coordinates: N40°42'0" W75°32'59"
Elevation is 760 feet MSL.
Magnetic variation is -11° East
View others Airports in Pennsylvania

Operational data

Special qualification required
Current time UTC:
Current local time:
Weather at : KABE - Lehigh Valley Intl ( 11 km )
METAR: KABE 071251Z 06012KT 10SM CLR 12/00 A2992 RMK AO2 SLP133 T01170000
TAF: KABE 071120Z 0712/0812 VRB03KT P6SM SCT090 BKN200 FM071600 12005KT P6SM SCT040 OVC060 FM072000 VRB04KT P6SM VCSH BKN060 FM072300 12004KT 6SM -SHRA BR SCT015 OVC025
View NOTAMs / SUP AIP / TFR affecting this airport [VIEW]
Communications frequencies: [VIEW]

Runways:

RWY identifierQFULength (ft)Width (ft)SurfaceLDA (ft)
NW120050GRASS
SE120050GRASS

Airport contact information

Address: Coplay United States

Satellite view of PA65